sensor_id;sensor_type;location;lat;lon;timestamp;P1;durP1;ratioP1;P2;durP2;ratioP2
23370;SDS011;11858;51.056;3.712;2023-02-15T00:01:27;111.80;;;63.05;;
23370;SDS011;11858;51.056;3.712;2023-02-15T00:03:53;133.70;;;72.18;;
23370;SDS011;11858;51.056;3.712;2023-02-15T00:06:19;135.27;;;71.53;;
23370;SDS011;11858;51.056;3.712;2023-02-15T00:08:44;126.35;;;69.35;;
23370;SDS011;11858;51.056;3.712;2023-02-15T00:11:11;122.35;;;67.05;;
23370;SDS011;11858;51.056;3.712;2023-02-15T00:13:39;126.45;;;67.05;;
23370;SDS011;11858;51.056;3.712;2023-02-15T00:16:09;120.30;;;67.47;;
23370;SDS011;11858;51.056;3.712;2023-02-15T00:18:37;116.47;;;64.07;;
23370;SDS011;11858;51.056;3.712;2023-02-15T00:21:04;122.90;;;65.68;;
23370;SDS011;11858;51.056;3.712;2023-02-15T00:23:32;126.45;;;64.93;;
23370;SDS011;11858;51.056;3.712;2023-02-15T00:26:08;123.10;;;63.38;;
23370;SDS011;11858;51.056;3.712;2023-02-15T00:28:36;127.00;;;66.18;;
23370;SDS011;11858;51.056;3.712;2023-02-15T00:31:07;144.10;;;71.22;;
23370;SDS011;11858;51.056;3.712;2023-02-15T00:33:34;140.20;;;70.47;;
23370;SDS011;11858;51.056;3.712;2023-02-15T00:36:00;125.93;;;64.97;;
23370;SDS011;11858;51.056;3.712;2023-02-15T00:38:28;135.75;;;68.82;;
23370;SDS011;11858;51.056;3.712;2023-02-15T00:40:55;136.43;;;67.43;;
23370;SDS011;11858;51.056;3.712;2023-02-15T00:43:22;130.32;;;67.53;;
23370;SDS011;11858;51.056;3.712;2023-02-15T00:45:48;147.02;;;69.18;;
23370;SDS011;11858;51.056;3.712;2023-02-15T00:48:14;132.18;;;65.53;;
23370;SDS011;11858;51.056;3.712;2023-02-15T00:50:39;130.32;;;68.53;;
23370;SDS011;11858;51.056;3.712;2023-02-15T00:53:05;132.57;;;66.68;;
23370;SDS011;11858;51.056;3.712;2023-02-15T00:55:31;134.43;;;67.38;;
23370;SDS011;11858;51.056;3.712;2023-02-15T00:57:57;131.32;;;66.88;;
23370;SDS011;11858;51.056;3.712;2023-02-15T01:00:22;131.45;;;68.20;;
23370;SDS011;11858;51.056;3.712;2023-02-15T01:02:48;137.98;;;70.40;;
23370;SDS011;11858;51.056;3.712;2023-02-15T01:05:14;135.23;;;66.47;;
23370;SDS011;11858;51.056;3.712;2023-02-15T01:07:40;142.30;;;70.95;;
23370;SDS011;11858;51.056;3.712;2023-02-15T01:10:06;138.13;;;68.50;;
23370;SDS011;11858;51.056;3.712;2023-02-15T01:12:32;130.15;;;67.63;;
23370;SDS011;11858;51.056;3.712;2023-02-15T01:14:58;128.23;;;65.65;;
23370;SDS011;11858;51.056;3.712;2023-02-15T01:17:24;135.88;;;67.10;;
23370;SDS011;11858;51.056;3.712;2023-02-15T01:19:50;136.25;;;66.03;;
23370;SDS011;11858;51.056;3.712;2023-02-15T01:22:16;126.32;;;65.93;;
23370;SDS011;11858;51.056;3.712;2023-02-15T01:24:43;132.57;;;68.45;;
23370;SDS011;11858;51.056;3.712;2023-02-15T01:27:09;133.77;;;67.40;;
23370;SDS011;11858;51.056;3.712;2023-02-15T01:29:34;131.23;;;65.07;;
23370;SDS011;11858;51.056;3.712;2023-02-15T01:32:00;132.70;;;68.00;;
23370;SDS011;11858;51.056;3.712;2023-02-15T01:34:26;124.05;;;64.70;;
23370;SDS011;11858;51.056;3.712;2023-02-15T01:36:53;135.18;;;67.00;;
23370;SDS011;11858;51.056;3.712;2023-02-15T01:39:19;135.95;;;67.63;;
23370;SDS011;11858;51.056;3.712;2023-02-15T01:41:44;125.70;;;65.60;;
23370;SDS011;11858;51.056;3.712;2023-02-15T01:44:45;140.77;;;69.47;;
23370;SDS011;11858;51.056;3.712;2023-02-15T01:47:22;128.02;;;63.97;;
23370;SDS011;11858;51.056;3.712;2023-02-15T01:50:16;128.52;;;66.80;;
23370;SDS011;11858;51.056;3.712;2023-02-15T01:55:23;148.23;;;74.35;;
23370;SDS011;11858;51.056;3.712;2023-02-15T02:00:19;144.25;;;70.75;;
23370;SDS011;11858;51.056;3.712;2023-02-15T02:02:46;148.77;;;73.45;;
23370;SDS011;11858;51.056;3.712;2023-02-15T02:05:16;140.98;;;72.45;;
23370;SDS011;11858;51.056;3.712;2023-02-15T02:07:43;144.40;;;71.93;;
23370;SDS011;11858;51.056;3.712;2023-02-15T02:10:12;141.88;;;72.57;;
23370;SDS011;11858;51.056;3.712;2023-02-15T02:12:41;145.13;;;74.23;;
23370;SDS011;11858;51.056;3.712;2023-02-15T02:15:09;136.98;;;68.68;;
23370;SDS011;11858;51.056;3.712;2023-02-15T02:26:10;136.63;;;69.05;;
23370;SDS011;11858;51.056;3.712;2023-02-15T02:34:43;132.48;;;68.68;;
23370;SDS011;11858;51.056;3.712;2023-02-15T02:39:49;136.90;;;69.82;;
23370;SDS011;11858;51.056;3.712;2023-02-15T02:42:41;151.30;;;73.57;;
23370;SDS011;11858;51.056;3.712;2023-02-15T02:47:43;153.57;;;73.20;;
23370;SDS011;11858;51.056;3.712;2023-02-15T02:50:18;143.07;;;72.38;;
23370;SDS011;11858;51.056;3.712;2023-02-15T02:52:52;164.65;;;77.63;;
23370;SDS011;11858;51.056;3.712;2023-02-15T02:55:23;149.68;;;75.15;;
23370;SDS011;11858;51.056;3.712;2023-02-15T03:00:23;146.68;;;74.32;;
23370;SDS011;11858;51.056;3.712;2023-02-15T03:02:52;154.40;;;74.63;;
23370;SDS011;11858;51.056;3.712;2023-02-15T03:05:24;146.68;;;73.60;;
23370;SDS011;11858;51.056;3.712;2023-02-15T03:07:52;143.25;;;71.82;;
23370;SDS011;11858;51.056;3.712;2023-02-15T03:10:20;150.30;;;72.18;;
23370;SDS011;11858;51.056;3.712;2023-02-15T03:12:48;138.13;;;68.40;;
23370;SDS011;11858;51.056;3.712;2023-02-15T03:15:16;140.57;;;69.75;;
23370;SDS011;11858;51.056;3.712;2023-02-15T03:18:14;163.38;;;74.38;;
23370;SDS011;11858;51.056;3.712;2023-02-15T03:20:43;144.38;;;71.50;;
23370;SDS011;11858;51.056;3.712;2023-02-15T03:23:11;150.38;;;72.03;;
23370;SDS011;11858;51.056;3.712;2023-02-15T03:25:44;149.50;;;73.22;;
23370;SDS011;11858;51.056;3.712;2023-02-15T03:28:48;162.85;;;77.18;;
23370;SDS011;11858;51.056;3.712;2023-02-15T03:31:09;155.30;;;76.85;;
23370;SDS011;11858;51.056;3.712;2023-02-15T03:33:37;161.10;;;77.57;;
23370;SDS011;11858;51.056;3.712;2023-02-15T03:36:11;162.50;;;75.63;;
23370;SDS011;11858;51.056;3.712;2023-02-15T03:41:25;169.25;;;79.38;;
23370;SDS011;11858;51.056;3.712;2023-02-15T03:43:58;165.20;;;80.07;;
23370;SDS011;11858;51.056;3.712;2023-02-15T03:51:38;142.48;;;71.53;;
23370;SDS011;11858;51.056;3.712;2023-02-15T03:54:12;156.55;;;78.05;;
23370;SDS011;11858;51.056;3.712;2023-02-15T03:57:08;167.57;;;81.78;;
23370;SDS011;11858;51.056;3.712;2023-02-15T03:59:58;161.45;;;77.18;;
23370;SDS011;11858;51.056;3.712;2023-02-15T04:02:50;170.00;;;80.20;;
23370;SDS011;11858;51.056;3.712;2023-02-15T04:05:18;167.60;;;81.05;;
23370;SDS011;11858;51.056;3.712;2023-02-15T04:07:43;168.93;;;79.47;;
23370;SDS011;11858;51.056;3.712;2023-02-15T04:10:09;160.90;;;77.43;;
23370;SDS011;11858;51.056;3.712;2023-02-15T04:12:54;171.65;;;79.03;;
23370;SDS011;11858;51.056;3.712;2023-02-15T04:15:20;164.02;;;77.97;;
23370;SDS011;11858;51.056;3.712;2023-02-15T04:18:05;161.15;;;77.15;;
23370;SDS011;11858;51.056;3.712;2023-02-15T04:20:31;168.38;;;78.90;;
23370;SDS011;11858;51.056;3.712;2023-02-15T04:23:15;160.38;;;75.70;;
23370;SDS011;11858;51.056;3.712;2023-02-15T04:26:02;160.95;;;75.40;;
23370;SDS011;11858;51.056;3.712;2023-02-15T04:28:29;173.50;;;79.43;;
23370;SDS011;11858;51.056;3.712;2023-02-15T04:30:55;160.65;;;76.30;;
23370;SDS011;11858;51.056;3.712;2023-02-15T04:33:21;164.43;;;75.65;;
23370;SDS011;11858;51.056;3.712;2023-02-15T04:35:47;169.38;;;77.07;;
23370;SDS011;11858;51.056;3.712;2023-02-15T04:38:12;164.15;;;73.97;;
23370;SDS011;11858;51.056;3.712;2023-02-15T04:40:38;163.48;;;76.93;;
23370;SDS011;11858;51.056;3.712;2023-02-15T04:43:04;153.15;;;72.72;;
23370;SDS011;11858;51.056;3.712;2023-02-15T04:45:30;148.48;;;70.00;;
23370;SDS011;11858;51.056;3.712;2023-02-15T04:47:56;153.75;;;70.50;;
23370;SDS011;11858;51.056;3.712;2023-02-15T04:50:21;164.80;;;72.60;;
23370;SDS011;11858;51.056;3.712;2023-02-15T04:52:47;155.27;;;70.72;;
23370;SDS011;11858;51.056;3.712;2023-02-15T04:55:13;161.57;;;70.85;;
23370;SDS011;11858;51.056;3.712;2023-02-15T04:57:39;157.60;;;71.68;;
23370;SDS011;11858;51.056;3.712;2023-02-15T05:00:05;147.80;;;68.30;;
23370;SDS011;11858;51.056;3.712;2023-02-15T05:02:31;164.20;;;71.72;;
23370;SDS011;11858;51.056;3.712;2023-02-15T05:04:57;177.10;;;76.05;;
23370;SDS011;11858;51.056;3.712;2023-02-15T05:07:23;168.50;;;73.40;;
23370;SDS011;11858;51.056;3.712;2023-02-15T05:09:49;162.23;;;70.80;;
23370;SDS011;11858;51.056;3.712;2023-02-15T05:12:15;165.80;;;72.57;;
23370;SDS011;11858;51.056;3.712;2023-02-15T05:14:40;169.75;;;74.05;;
23370;SDS011;11858;51.056;3.712;2023-02-15T05:17:06;167.55;;;72.22;;
23370;SDS011;11858;51.056;3.712;2023-02-15T05:19:32;160.95;;;69.85;;
23370;SDS011;11858;51.056;3.712;2023-02-15T05:21:57;163.32;;;69.50;;
23370;SDS011;11858;51.056;3.712;2023-02-15T05:24:24;155.43;;;66.55;;
23370;SDS011;11858;51.056;3.712;2023-02-15T05:27:10;152.38;;;67.32;;
23370;SDS011;11858;51.056;3.712;2023-02-15T05:29:55;139.82;;;63.22;;
23370;SDS011;11858;51.056;3.712;2023-02-15T05:32:21;142.82;;;64.05;;
23370;SDS011;11858;51.056;3.712;2023-02-15T05:34:46;139.73;;;63.72;;
23370;SDS011;11858;51.056;3.712;2023-02-15T05:37:12;143.55;;;63.42;;
23370;SDS011;11858;51.056;3.712;2023-02-15T05:39:38;139.57;;;63.03;;
23370;SDS011;11858;51.056;3.712;2023-02-15T05:42:04;138.65;;;63.63;;
23370;SDS011;11858;51.056;3.712;2023-02-15T05:44:29;139.50;;;64.28;;
23370;SDS011;11858;51.056;3.712;2023-02-15T05:46:55;148.25;;;67.13;;
23370;SDS011;11858;51.056;3.712;2023-02-15T05:49:21;153.82;;;68.47;;
23370;SDS011;11858;51.056;3.712;2023-02-15T05:51:47;138.00;;;64.38;;
23370;SDS011;11858;51.056;3.712;2023-02-15T05:54:13;143.35;;;64.95;;
23370;SDS011;11858;51.056;3.712;2023-02-15T05:56:39;155.02;;;66.97;;
23370;SDS011;11858;51.056;3.712;2023-02-15T05:59:05;147.70;;;65.97;;
23370;SDS011;11858;51.056;3.712;2023-02-15T06:01:31;162.75;;;71.35;;
23370;SDS011;11858;51.056;3.712;2023-02-15T06:03:56;158.85;;;69.43;;
23370;SDS011;11858;51.056;3.712;2023-02-15T06:06:22;156.95;;;69.78;;
23370;SDS011;11858;51.056;3.712;2023-02-15T06:08:48;162.68;;;71.60;;
23370;SDS011;11858;51.056;3.712;2023-02-15T06:11:14;149.90;;;67.28;;
23370;SDS011;11858;51.056;3.712;2023-02-15T06:13:40;155.60;;;67.30;;
23370;SDS011;11858;51.056;3.712;2023-02-15T06:16:06;146.38;;;66.30;;
23370;SDS011;11858;51.056;3.712;2023-02-15T06:18:32;145.10;;;65.63;;
23370;SDS011;11858;51.056;3.712;2023-02-15T06:20:58;146.98;;;66.03;;
23370;SDS011;11858;51.056;3.712;2023-02-15T06:23:24;146.68;;;63.83;;
23370;SDS011;11858;51.056;3.712;2023-02-15T06:25:49;142.15;;;63.53;;
23370;SDS011;11858;51.056;3.712;2023-02-15T06:28:15;136.43;;;63.15;;
23370;SDS011;11858;51.056;3.712;2023-02-15T06:30:41;138.52;;;63.88;;
23370;SDS011;11858;51.056;3.712;2023-02-15T06:33:07;137.25;;;63.05;;
23370;SDS011;11858;51.056;3.712;2023-02-15T06:35:32;133.02;;;60.88;;
23370;SDS011;11858;51.056;3.712;2023-02-15T06:37:58;127.07;;;58.20;;
23370;SDS011;11858;51.056;3.712;2023-02-15T06:40:24;127.20;;;59.45;;
23370;SDS011;11858;51.056;3.712;2023-02-15T06:42:50;124.05;;;57.17;;
23370;SDS011;11858;51.056;3.712;2023-02-15T06:45:15;126.25;;;58.03;;
23370;SDS011;11858;51.056;3.712;2023-02-15T06:47:41;118.38;;;57.70;;
23370;SDS011;11858;51.056;3.712;2023-02-15T06:50:07;119.55;;;55.00;;
23370;SDS011;11858;51.056;3.712;2023-02-15T06:52:34;121.55;;;56.67;;
23370;SDS011;11858;51.056;3.712;2023-02-15T06:54:59;118.78;;;56.70;;
23370;SDS011;11858;51.056;3.712;2023-02-15T06:57:25;120.60;;;55.67;;
23370;SDS011;11858;51.056;3.712;2023-02-15T06:59:51;116.72;;;55.15;;
23370;SDS011;11858;51.056;3.712;2023-02-15T07:02:17;113.80;;;54.92;;
23370;SDS011;11858;51.056;3.712;2023-02-15T07:04:43;112.93;;;53.20;;
23370;SDS011;11858;51.056;3.712;2023-02-15T07:07:09;119.38;;;56.13;;
23370;SDS011;11858;51.056;3.712;2023-02-15T07:09:36;122.53;;;57.55;;
23370;SDS011;11858;51.056;3.712;2023-02-15T07:12:02;112.30;;;55.15;;
23370;SDS011;11858;51.056;3.712;2023-02-15T07:14:47;120.97;;;56.10;;
23370;SDS011;11858;51.056;3.712;2023-02-15T07:17:13;116.70;;;55.88;;
23370;SDS011;11858;51.056;3.712;2023-02-15T07:19:39;118.60;;;55.00;;
23370;SDS011;11858;51.056;3.712;2023-02-15T07:22:04;117.10;;;55.78;;
23370;SDS011;11858;51.056;3.712;2023-02-15T07:24:30;113.50;;;53.35;;
23370;SDS011;11858;51.056;3.712;2023-02-15T07:26:56;103.35;;;51.88;;
23370;SDS011;11858;51.056;3.712;2023-02-15T07:29:25;111.53;;;53.75;;
23370;SDS011;11858;51.056;3.712;2023-02-15T07:31:51;110.30;;;53.30;;
23370;SDS011;11858;51.056;3.712;2023-02-15T07:34:16;108.07;;;51.38;;
23370;SDS011;11858;51.056;3.712;2023-02-15T07:36:42;108.28;;;51.45;;
23370;SDS011;11858;51.056;3.712;2023-02-15T07:39:11;107.95;;;51.80;;
23370;SDS011;11858;51.056;3.712;2023-02-15T07:41:36;111.07;;;54.25;;
23370;SDS011;11858;51.056;3.712;2023-02-15T07:44:02;106.95;;;53.53;;
23370;SDS011;11858;51.056;3.712;2023-02-15T07:46:28;101.20;;;49.63;;
23370;SDS011;11858;51.056;3.712;2023-02-15T07:48:55;108.07;;;50.83;;
23370;SDS011;11858;51.056;3.712;2023-02-15T07:51:21;101.95;;;48.67;;
23370;SDS011;11858;51.056;3.712;2023-02-15T07:53:47;102.32;;;48.42;;
23370;SDS011;11858;51.056;3.712;2023-02-15T07:56:13;98.55;;;48.40;;
23370;SDS011;11858;51.056;3.712;2023-02-15T07:58:39;101.95;;;49.47;;
23370;SDS011;11858;51.056;3.712;2023-02-15T08:01:18;93.47;;;46.83;;
23370;SDS011;11858;51.056;3.712;2023-02-15T08:03:55;88.82;;;45.20;;
23370;SDS011;11858;51.056;3.712;2023-02-15T08:06:22;83.75;;;43.72;;
23370;SDS011;11858;51.056;3.712;2023-02-15T08:08:49;83.03;;;43.03;;
23370;SDS011;11858;51.056;3.712;2023-02-15T08:11:22;81.30;;;43.80;;
23370;SDS011;11858;51.056;3.712;2023-02-15T08:14:10;76.82;;;44.28;;
23370;SDS011;11858;51.056;3.712;2023-02-15T08:16:39;77.05;;;44.33;;
23370;SDS011;11858;51.056;3.712;2023-02-15T08:21:50;81.93;;;47.00;;
23370;SDS011;11858;51.056;3.712;2023-02-15T08:24:18;81.40;;;45.05;;
23370;SDS011;11858;51.056;3.712;2023-02-15T08:26:46;81.20;;;45.72;;
23370;SDS011;11858;51.056;3.712;2023-02-15T08:29:13;82.97;;;45.67;;
23370;SDS011;11858;51.056;3.712;2023-02-15T08:31:39;79.28;;;44.60;;
23370;SDS011;11858;51.056;3.712;2023-02-15T08:34:07;85.85;;;45.58;;
23370;SDS011;11858;51.056;3.712;2023-02-15T08:36:34;80.57;;;45.47;;
23370;SDS011;11858;51.056;3.712;2023-02-15T08:39:00;74.35;;;45.33;;
23370;SDS011;11858;51.056;3.712;2023-02-15T08:41:29;79.60;;;44.65;;
23370;SDS011;11858;51.056;3.712;2023-02-15T08:43:58;80.72;;;47.08;;
23370;SDS011;11858;51.056;3.712;2023-02-15T08:46:26;77.30;;;45.92;;
23370;SDS011;11858;51.056;3.712;2023-02-15T08:48:53;75.70;;;45.47;;
23370;SDS011;11858;51.056;3.712;2023-02-15T08:51:20;76.55;;;45.05;;
23370;SDS011;11858;51.056;3.712;2023-02-15T08:53:49;76.47;;;45.22;;
23370;SDS011;11858;51.056;3.712;2023-02-15T08:56:17;76.07;;;43.63;;
23370;SDS011;11858;51.056;3.712;2023-02-15T08:58:45;81.13;;;43.10;;
23370;SDS011;11858;51.056;3.712;2023-02-15T09:01:12;76.88;;;44.22;;
23370;SDS011;11858;51.056;3.712;2023-02-15T09:03:49;74.40;;;44.47;;
23370;SDS011;11858;51.056;3.712;2023-02-15T09:06:19;75.45;;;46.17;;
23370;SDS011;11858;51.056;3.712;2023-02-15T09:08:46;72.20;;;46.28;;
23370;SDS011;11858;51.056;3.712;2023-02-15T09:11:13;75.43;;;46.50;;
23370;SDS011;11858;51.056;3.712;2023-02-15T09:13:48;73.63;;;47.53;;
23370;SDS011;11858;51.056;3.712;2023-02-15T09:16:16;76.93;;;47.83;;
23370;SDS011;11858;51.056;3.712;2023-02-15T09:18:42;73.40;;;48.08;;
23370;SDS011;11858;51.056;3.712;2023-02-15T09:21:10;76.20;;;49.10;;
23370;SDS011;11858;51.056;3.712;2023-02-15T09:23:38;78.13;;;49.08;;
23370;SDS011;11858;51.056;3.712;2023-02-15T09:26:06;68.50;;;49.33;;
23370;SDS011;11858;51.056;3.712;2023-02-15T09:28:36;70.15;;;48.42;;
23370;SDS011;11858;51.056;3.712;2023-02-15T09:33:43;67.28;;;48.42;;
23370;SDS011;11858;51.056;3.712;2023-02-15T09:36:18;69.80;;;47.78;;
23370;SDS011;11858;51.056;3.712;2023-02-15T09:38:46;66.85;;;47.80;;
23370;SDS011;11858;51.056;3.712;2023-02-15T09:43:59;72.82;;;50.55;;
23370;SDS011;11858;51.056;3.712;2023-02-15T09:47:04;66.55;;;49.05;;
23370;SDS011;11858;51.056;3.712;2023-02-15T09:52:31;69.57;;;49.72;;
23370;SDS011;11858;51.056;3.712;2023-02-15T10:03:35;72.05;;;49.63;;
23370;SDS011;11858;51.056;3.712;2023-02-15T10:19:44;68.15;;;50.50;;
23370;SDS011;11858;51.056;3.712;2023-02-15T10:28:17;67.43;;;49.60;;
23370;SDS011;11858;51.056;3.712;2023-02-15T10:33:41;68.50;;;50.22;;
23370;SDS011;11858;51.056;3.712;2023-02-15T10:42:11;72.05;;;51.05;;
23370;SDS011;11858;51.056;3.712;2023-02-15T10:52:39;67.07;;;50.10;;
23370;SDS011;11858;51.056;3.712;2023-02-15T10:55:40;69.38;;;51.30;;
23370;SDS011;11858;51.056;3.712;2023-02-15T11:01:34;69.53;;;52.35;;
23370;SDS011;11858;51.056;3.712;2023-02-15T11:06:43;70.70;;;50.60;;
23370;SDS011;11858;51.056;3.712;2023-02-15T11:09:19;68.05;;;49.63;;
23370;SDS011;11858;51.056;3.712;2023-02-15T11:11:51;72.28;;;51.13;;
23370;SDS011;11858;51.056;3.712;2023-02-15T11:17:04;69.88;;;50.35;;
23370;SDS011;11858;51.056;3.712;2023-02-15T11:22:30;75.78;;;51.10;;
23370;SDS011;11858;51.056;3.712;2023-02-15T11:24:58;71.60;;;49.75;;
23370;SDS011;11858;51.056;3.712;2023-02-15T11:27:27;66.97;;;50.25;;
23370;SDS011;11858;51.056;3.712;2023-02-15T11:32:33;69.20;;;50.85;;
23370;SDS011;11858;51.056;3.712;2023-02-15T11:38:34;70.82;;;51.50;;
23370;SDS011;11858;51.056;3.712;2023-02-15T11:40:51;69.80;;;50.90;;
23370;SDS011;11858;51.056;3.712;2023-02-15T11:46:02;75.30;;;51.20;;
23370;SDS011;11858;51.056;3.712;2023-02-15T11:48:29;68.07;;;50.42;;
23370;SDS011;11858;51.056;3.712;2023-02-15T11:50:56;66.28;;;49.65;;
23370;SDS011;11858;51.056;3.712;2023-02-15T11:53:22;66.47;;;49.40;;
23370;SDS011;11858;51.056;3.712;2023-02-15T11:55:52;65.00;;;49.43;;
23370;SDS011;11858;51.056;3.712;2023-02-15T11:58:30;68.70;;;52.00;;
23370;SDS011;11858;51.056;3.712;2023-02-15T12:01:09;66.45;;;49.38;;
23370;SDS011;11858;51.056;3.712;2023-02-15T12:03:52;74.55;;;50.30;;
23370;SDS011;11858;51.056;3.712;2023-02-15T12:06:28;70.72;;;50.53;;
23370;SDS011;11858;51.056;3.712;2023-02-15T12:11:42;70.20;;;50.35;;
23370;SDS011;11858;51.056;3.712;2023-02-15T12:14:09;66.03;;;48.63;;
23370;SDS011;11858;51.056;3.712;2023-02-15T12:16:40;65.97;;;50.25;;
23370;SDS011;11858;51.056;3.712;2023-02-15T12:19:20;67.80;;;50.90;;
23370;SDS011;11858;51.056;3.712;2023-02-15T12:21:51;74.18;;;50.90;;
23370;SDS011;11858;51.056;3.712;2023-02-15T12:24:20;73.03;;;50.67;;
23370;SDS011;11858;51.056;3.712;2023-02-15T12:29:46;67.32;;;50.72;;
23370;SDS011;11858;51.056;3.712;2023-02-15T12:32:24;66.13;;;50.08;;
23370;SDS011;11858;51.056;3.712;2023-02-15T12:34:53;70.95;;;50.70;;
23370;SDS011;11858;51.056;3.712;2023-02-15T12:37:26;73.75;;;50.22;;
23370;SDS011;11858;51.056;3.712;2023-02-15T12:39:55;70.30;;;51.42;;
23370;SDS011;11858;51.056;3.712;2023-02-15T12:42:23;72.35;;;51.88;;
23370;SDS011;11858;51.056;3.712;2023-02-15T12:45:00;67.85;;;48.40;;
23370;SDS011;11858;51.056;3.712;2023-02-15T12:47:28;70.20;;;50.58;;
23370;SDS011;11858;51.056;3.712;2023-02-15T12:50:07;67.80;;;49.65;;
23370;SDS011;11858;51.056;3.712;2023-02-15T12:52:36;70.43;;;50.85;;
23370;SDS011;11858;51.056;3.712;2023-02-15T12:55:44;74.57;;;51.47;;
23370;SDS011;11858;51.056;3.712;2023-02-15T12:58:37;67.90;;;50.50;;
23370;SDS011;11858;51.056;3.712;2023-02-15T13:00:45;68.95;;;49.85;;
23370;SDS011;11858;51.056;3.712;2023-02-15T13:03:19;69.63;;;50.55;;
23370;SDS011;11858;51.056;3.712;2023-02-15T13:05:52;70.20;;;49.88;;
23370;SDS011;11858;51.056;3.712;2023-02-15T13:11:11;65.20;;;50.55;;
23370;SDS011;11858;51.056;3.712;2023-02-15T13:13:59;71.10;;;52.58;;
23370;SDS011;11858;51.056;3.712;2023-02-15T13:16:32;66.40;;;50.60;;
23370;SDS011;11858;51.056;3.712;2023-02-15T13:19:09;63.47;;;48.78;;
23370;SDS011;11858;51.056;3.712;2023-02-15T13:21:47;66.25;;;48.75;;
23370;SDS011;11858;51.056;3.712;2023-02-15T13:24:17;65.88;;;49.83;;
23370;SDS011;11858;51.056;3.712;2023-02-15T13:26:54;62.33;;;48.08;;
23370;SDS011;11858;51.056;3.712;2023-02-15T13:29:28;60.00;;;48.08;;
23370;SDS011;11858;51.056;3.712;2023-02-15T13:32:00;67.50;;;49.30;;
23370;SDS011;11858;51.056;3.712;2023-02-15T13:34:39;62.67;;;48.40;;
23370;SDS011;11858;51.056;3.712;2023-02-15T13:42:41;66.50;;;50.17;;
23370;SDS011;11858;51.056;3.712;2023-02-15T13:48:26;64.05;;;49.55;;
23370;SDS011;11858;51.056;3.712;2023-02-15T13:51:21;56.08;;;46.50;;
23370;SDS011;11858;51.056;3.712;2023-02-15T13:56:34;62.47;;;48.85;;
23370;SDS011;11858;51.056;3.712;2023-02-15T14:02:38;60.88;;;49.17;;
23370;SDS011;11858;51.056;3.712;2023-02-15T14:16:33;68.05;;;50.35;;
23370;SDS011;11858;51.056;3.712;2023-02-15T14:19:35;64.13;;;49.87;;
23370;SDS011;11858;51.056;3.712;2023-02-15T14:22:38;69.07;;;51.78;;
23370;SDS011;11858;51.056;3.712;2023-02-15T14:30:37;62.47;;;48.65;;
23370;SDS011;11858;51.056;3.712;2023-02-15T14:33:28;67.05;;;50.15;;
23370;SDS011;11858;51.056;3.712;2023-02-15T14:48:53;68.03;;;51.63;;
23370;SDS011;11858;51.056;3.712;2023-02-15T14:54:06;68.38;;;50.35;;
23370;SDS011;11858;51.056;3.712;2023-02-15T14:56:32;68.82;;;50.30;;
23370;SDS011;11858;51.056;3.712;2023-02-15T14:58:59;66.47;;;50.10;;
23370;SDS011;11858;51.056;3.712;2023-02-15T15:01:54;69.68;;;49.88;;
23370;SDS011;11858;51.056;3.712;2023-02-15T15:09:35;70.43;;;50.75;;
23370;SDS011;11858;51.056;3.712;2023-02-15T15:12:36;67.07;;;49.65;;
23370;SDS011;11858;51.056;3.712;2023-02-15T15:14:57;71.30;;;52.95;;
23370;SDS011;11858;51.056;3.712;2023-02-15T15:20:04;71.63;;;51.80;;
23370;SDS011;11858;51.056;3.712;2023-02-15T15:22:39;74.82;;;52.15;;
23370;SDS011;11858;51.056;3.712;2023-02-15T15:25:10;69.75;;;50.80;;
23370;SDS011;11858;51.056;3.712;2023-02-15T15:27:47;81.88;;;52.95;;
23370;SDS011;11858;51.056;3.712;2023-02-15T15:32:52;70.90;;;50.90;;
23370;SDS011;11858;51.056;3.712;2023-02-15T15:35:27;70.22;;;50.22;;
23370;SDS011;11858;51.056;3.712;2023-02-15T15:38:16;73.75;;;49.92;;
23370;SDS011;11858;51.056;3.712;2023-02-15T15:49:48;75.45;;;50.67;;
23370;SDS011;11858;51.056;3.712;2023-02-15T15:52:18;73.30;;;49.85;;
23370;SDS011;11858;51.056;3.712;2023-02-15T15:54:46;69.75;;;51.05;;
23370;SDS011;11858;51.056;3.712;2023-02-15T15:57:19;73.57;;;51.53;;
23370;SDS011;11858;51.056;3.712;2023-02-15T15:59:55;69.32;;;50.88;;
23370;SDS011;11858;51.056;3.712;2023-02-15T16:02:24;72.30;;;51.40;;
23370;SDS011;11858;51.056;3.712;2023-02-15T16:04:51;70.13;;;52.25;;
23370;SDS011;11858;51.056;3.712;2023-02-15T16:09:55;67.63;;;52.00;;
23370;SDS011;11858;51.056;3.712;2023-02-15T16:12:23;68.35;;;50.75;;
23370;SDS011;11858;51.056;3.712;2023-02-15T16:14:55;72.50;;;49.67;;
23370;SDS011;11858;51.056;3.712;2023-02-15T16:17:25;75.68;;;52.60;;
23370;SDS011;11858;51.056;3.712;2023-02-15T16:20:19;71.70;;;52.58;;
23370;SDS011;11858;51.056;3.712;2023-02-15T16:22:49;73.47;;;51.70;;
23370;SDS011;11858;51.056;3.712;2023-02-15T16:28:17;69.35;;;50.70;;
23370;SDS011;11858;51.056;3.712;2023-02-15T16:30:45;72.90;;;50.65;;
23370;SDS011;11858;51.056;3.712;2023-02-15T16:33:12;72.78;;;51.33;;
23370;SDS011;11858;51.056;3.712;2023-02-15T16:35:55;70.93;;;50.78;;
23370;SDS011;11858;51.056;3.712;2023-02-15T16:41:07;75.70;;;51.38;;
23370;SDS011;11858;51.056;3.712;2023-02-15T16:43:39;74.90;;;50.95;;
23370;SDS011;11858;51.056;3.712;2023-02-15T16:46:10;75.28;;;51.58;;
23370;SDS011;11858;51.056;3.712;2023-02-15T16:48:41;69.35;;;50.22;;
23370;SDS011;11858;51.056;3.712;2023-02-15T16:51:11;75.10;;;53.47;;
23370;SDS011;11858;51.056;3.712;2023-02-15T16:53:46;75.53;;;52.08;;
23370;SDS011;11858;51.056;3.712;2023-02-15T16:56:13;81.78;;;53.00;;
23370;SDS011;11858;51.056;3.712;2023-02-15T16:58:42;71.47;;;50.08;;
23370;SDS011;11858;51.056;3.712;2023-02-15T17:01:10;75.28;;;50.50;;
23370;SDS011;11858;51.056;3.712;2023-02-15T17:03:39;72.13;;;52.20;;
23370;SDS011;11858;51.056;3.712;2023-02-15T17:06:18;72.40;;;50.97;;
23370;SDS011;11858;51.056;3.712;2023-02-15T17:08:50;80.88;;;52.70;;
23370;SDS011;11858;51.056;3.712;2023-02-15T17:14:17;76.68;;;52.95;;
23370;SDS011;11858;51.056;3.712;2023-02-15T17:19:15;84.63;;;53.58;;
23370;SDS011;11858;51.056;3.712;2023-02-15T17:22:04;74.60;;;52.25;;
23370;SDS011;11858;51.056;3.712;2023-02-15T17:24:35;71.43;;;50.22;;
23370;SDS011;11858;51.056;3.712;2023-02-15T17:27:15;74.45;;;50.65;;
23370;SDS011;11858;51.056;3.712;2023-02-15T17:29:51;76.25;;;49.85;;
23370;SDS011;11858;51.056;3.712;2023-02-15T17:32:23;78.28;;;52.35;;
23370;SDS011;11858;51.056;3.712;2023-02-15T17:37:50;73.85;;;49.47;;
23370;SDS011;11858;51.056;3.712;2023-02-15T17:40:26;71.55;;;50.42;;
23370;SDS011;11858;51.056;3.712;2023-02-15T17:42:54;75.00;;;51.85;;
23370;SDS011;11858;51.056;3.712;2023-02-15T17:45:21;74.15;;;52.17;;
23370;SDS011;11858;51.056;3.712;2023-02-15T17:47:49;77.32;;;52.85;;
23370;SDS011;11858;51.056;3.712;2023-02-15T17:50:20;75.88;;;53.55;;
23370;SDS011;11858;51.056;3.712;2023-02-15T17:52:48;77.70;;;51.35;;
23370;SDS011;11858;51.056;3.712;2023-02-15T17:55:17;82.53;;;53.13;;
23370;SDS011;11858;51.056;3.712;2023-02-15T17:58:00;76.22;;;53.40;;
23370;SDS011;11858;51.056;3.712;2023-02-15T18:00:29;78.20;;;54.83;;